Kipton, Ohio
Current Conditions -  °F | °C
As of 8:53 PM on Wednesday 22 Oct 2014 (Local Time) from KLPR Reporting Station
Overcast Overcast  
Wind Chill: 50°   Ceiling: 3500
Heat Index: 50°   Visibility: 10mi
Dew Point: 43°   Wind: 8mph
Humidity: 77%   Direction: 20°NNE
Pressure: 30.25"   Gusts: NA
Location:  41.27°N, 82.3°W
Report Text: KLPR 230053Z AUTO 02007KT 10SM SCT026 OVC035 10/06 A3025 RMK AO2 SLP247 T01000061 TSNO
Loading
Personal Weather Stations






























Interactive Weather Map
Tropical Storm Tracking
New forecast layout! Learn more

10-Day Weather Forecast

Advertisements
Track Severe Weather on mobile